Map

Track Data

SID SEASON NUMBER BASIN SUBBASIN NAME ISO_TIME NATURE LAT LON WMO_WIND WMO_PRES WMO_AGENCY TRACK_TYPE DIST2LAND LANDFALL IFLAG USA_AGENCY USA_ATCF_ID USA_LAT USA_LON USA_RECORD USA_STATUS USA_WIND USA_PRES USA_SSHS USA_R34_NE USA_R34_SE USA_R34_SW USA_R34_NW USA_R50_NE USA_R50_SE USA_R50_SW USA_R50_NW USA_R64_NE USA_R64_SE USA_R64_SW USA_R64_NW USA_POCI USA_ROCI USA_RMW USA_EYE TOKYO_LAT TOKYO_LON TOKYO_GRADE TOKYO_WIND TOKYO_PRES TOKYO_R50_DIR TOKYO_R50_LONG TOKYO_R50_SHORT TOKYO_R30_DIR TOKYO_R30_LONG TOKYO_R30_SHORT TOKYO_LAND CMA_LAT CMA_LON CMA_CAT CMA_WIND CMA_PRES HKO_LAT HKO_LON HKO_CAT HKO_WIND HKO_PRES NEWDELHI_LAT NEWDELHI_LON NEWDELHI_GRADE NEWDELHI_WIND NEWDELHI_PRES NEWDELHI_CI NEWDELHI_DP NEWDELHI_POCI REUNION_LAT REUNION_LON REUNION_TYPE REUNION_WIND REUNION_PRES REUNION_TNUM REUNION_CI REUNION_RMW REUNION_R34_NE REUNION_R34_SE REUNION_R34_SW REUNION_R34_NW REUNION_R50_NE REUNION_R50_SE REUNION_R50_SW REUNION_R50_NW REUNION_R64_NE REUNION_R64_SE REUNION_R64_SW REUNION_R64_NW BOM_LAT BOM_LON BOM_TYPE BOM_WIND BOM_PRES BOM_TNUM BOM_CI BOM_RMW BOM_R34_NE BOM_R34_SE BOM_R34_SW BOM_R34_NW BOM_R50_NE BOM_R50_SE BOM_R50_SW BOM_R50_NW BOM_R64_NE BOM_R64_SE BOM_R64_SW BOM_R64_NW BOM_ROCI BOM_POCI BOM_EYE BOM_POS_METHOD BOM_PRES_METHOD NADI_LAT NADI_LON NADI_CAT NADI_WIND NADI_PRES WELLINGTON_LAT WELLINGTON_LON WELLINGTON_WIND WELLINGTON_PRES DS824_LAT DS824_LON DS824_STAGE DS824_WIND DS824_PRES TD9636_LAT TD9636_LON TD9636_STAGE TD9636_WIND TD9636_PRES TD9635_LAT TD9635_LON TD9635_WIND TD9635_PRES TD9635_ROCI NEUMANN_LAT NEUMANN_LON NEUMANN_CLASS NEUMANN_WIND NEUMANN_PRES MLC_LAT MLC_LON MLC_CLASS MLC_WIND MLC_PRES USA_GUST BOM_GUST BOM_GUST_PER REUNION_GUST REUNION_GUST_PER USA_SEAHGT USA_SEARAD_NE USA_SEARAD_SE USA_SEARAD_SW USA_SEARAD_NW STORM_SPEED STORM_DIR
1915306N12134 1915 47 WP MM NOT_NAMED 1915-11-02 10:00:00 NR 11.7000 133.800 main 876 876 __________O___ -1 11.7000 133.800 7 2 116
1915306N12134 1915 47 WP MM NOT_NAMED 1915-11-02 12:00:00 NR 11.6704 133.860 main 887 884 __________P___ -1 11.6704 133.860 7 1 122
1915306N12134 1915 47 WP MM NOT_NAMED 1915-11-02 15:00:00 NR 11.6371 133.902 main 884 874 __________P___ -1 11.6371 133.902 7 1 227
1915306N12134 1915 47 WP MM NOT_NAMED 1915-11-02 18:00:00 NR 11.6325 133.822 main 874 843 __________P___ -1 11.6325 133.822 7 3 276
1915306N12134 1915 47 WP MM NOT_NAMED 1915-11-02 21:00:00 NR 11.6734 133.548 main 843 832 __________P___ -1 11.6734 133.548 7 6 279
1915306N12134 1915 47 WP MM NOT_NAMED 1915-11-02 22:00:00 NR 11.7000 133.400 main 832 790 __________O___ -1 11.7000 133.400 7 11 281
1915306N12134 1915 47 WP MM NOT_NAMED 1915-11-03 00:00:00 NR 11.7746 133.012 main 790 705 __________P___ -1 11.7746 133.012 7 14 281
1915306N12134 1915 47 WP MM NOT_NAMED 1915-11-03 03:00:00 NR 11.9301 132.235 main 705 612 __________P___ -1 11.9301 132.235 7 17 282
1915306N12134 1915 47 WP MM NOT_NAMED 1915-11-03 06:00:00 NR 12.1213 131.290 main 612 511 __________P___ -1 12.1213 131.290 7 20 282
1915306N12134 1915 47 WP MM NOT_NAMED 1915-11-03 09:00:00 NR 12.3297 130.253 main 511 483 __________P___ -1 12.3297 130.253 7 21 282
1915306N12134 1915 47 WP MM NOT_NAMED 1915-11-03 10:00:00 NR 12.4000 129.900 main 473 403 __________O___ -1 12.4000 129.900 7 21 280
1915306N12134 1915 47 WP MM NOT_NAMED 1915-11-03 12:00:00 NR 12.5123 129.216 main 403 287 __________P___ -1 12.5123 129.216 7 21 280
1915306N12134 1915 47 WP MM NOT_NAMED 1915-11-03 15:00:00 NR 12.6866 128.145 main 287 190 __________P___ -1 12.6866 128.145 7 21 280
1915306N12134 1915 47 WP MM NOT_NAMED 1915-11-03 18:00:00 NR 12.8814 127.066 main 190 109 __________P___ -1 12.8814 127.066 7 21 282
1915306N12134 1915 47 WP MM NOT_NAMED 1915-11-03 21:00:00 NR 13.1122 126.028 main 109 101 __________P___ -1 13.1122 126.028 7 21 283
1915306N12134 1915 47 WP MM NOT_NAMED 1915-11-03 22:00:00 NR 13.2000 125.700 main 95 82 __________O___ -1 13.2000 125.700 4 19 286
1915306N12134 1915 47 WP MM NOT_NAMED 1915-11-04 00:00:00 NR 13.3763 125.111 main 82 0 __________P___ -1 13.3763 125.111 4 18 289
1915306N12134 1915 47 WP MM NOT_NAMED 1915-11-04 03:00:00 NR 13.6794 124.284 main 0 0 __________P___ -1 13.6794 124.284 4 17 293
1915306N12134 1915 47 WP MM NOT_NAMED 1915-11-04 06:00:00 NR 14.0347 123.488 main 11 11 __________P___ -1 14.0347 123.488 4 17 296
1915306N12134 1915 47 WP MM NOT_NAMED 1915-11-04 09:00:00 NR 14.4482 122.680 main 22 33 __________P___ -1 14.4482 122.680 4 18 298
1915306N12134 1915 47 WP MM NOT_NAMED 1915-11-04 10:00:00 NR 14.6000 122.400 main 44 24 __________O___ -1 14.6000 122.400 4 20 299
1915306N12134 1915 47 WP MM NOT_NAMED 1915-11-04 12:00:00 NR 14.9401 121.755 main 24 0 __________P___ -1 14.9401 121.755 4 22 300
1915306N12134 1915 47 WP MM NOT_NAMED 1915-11-04 15:00:00 NR 15.5011 120.754 main 0 0 __________P___ -1 15.5011 120.754 4 22 301
1915306N12134 1915 47 WP MM NOT_NAMED 1915-11-04 18:00:00 NR 16.0803 119.770 main 0 10 __________P___ -1 16.0803 119.770 4 21 302
1915306N12134 1915 47 WP MM NOT_NAMED 1915-11-04 21:00:00 NR 16.6308 118.870 main 101 115 __________P___ -1 16.6308 118.870 4 20 303
1915306N12134 1915 47 WP MM NOT_NAMED 1915-11-04 22:00:00 NR 16.8000 118.600 main 139 139 __________O___ -1 16.8000 118.600 4 17 303
1915306N12134 1915 47 WP MM NOT_NAMED 1915-11-05 00:00:00 NR 17.0880 118.143 main 202 202 __________P___ -1 17.0880 118.143 4 14 304
1915306N12134 1915 47 WP MM NOT_NAMED 1915-11-05 03:00:00 NR 17.4774 117.559 main 269 279 __________P___ -1 17.4774 117.559 4 13 306
1915306N12134 1915 47 WP MM NOT_NAMED 1915-11-05 06:00:00 NR 17.8353 117.052 main 332 347 __________P___ -1 17.8353 117.052 4 12 307
1915306N12134 1915 47 WP MM NOT_NAMED 1915-11-05 09:00:00 NR 18.1828 116.566 main 397 407 __________P___ -1 18.1828 116.566 4 12 307
1915306N12134 1915 47 WP MM NOT_NAMED 1915-11-05 10:00:00 NR 18.3000 116.400 main 419 419 __________O___ -1 18.3000 116.400 4 13 304
1915306N12134 1915 47 WP MM NOT_NAMED 1915-11-05 12:00:00 NR 18.5501 116.001 main 450 397 __________P___ -1 18.5501 116.001 4 14 303
1915306N12134 1915 47 WP MM NOT_NAMED 1915-11-05 15:00:00 NR 18.9253 115.397 main 397 339 __________P___ -1 18.9253 115.397 4 14 304
1915306N12134 1915 47 WP MM NOT_NAMED 1915-11-05 18:00:00 NR 19.3004 114.809 main 339 280 __________P___ -1 19.3004 114.809 4 13 305
1915306N12134 1915 47 WP MM NOT_NAMED 1915-11-05 21:00:00 NR 19.6751 114.266 main 280 261 __________P___ -1 19.6751 114.266 4 13 307
1915306N12134 1915 47 WP MM NOT_NAMED 1915-11-05 22:00:00 NR 19.8000 114.100 main 261 217 __________O___ -1 19.8000 114.100 4 12 311
1915306N12134 1915 47 WP MM NOT_NAMED 1915-11-06 00:00:00 NR 20.0597 113.804 main 217 161 __________P___ -1 20.0597 113.804 4 11 315
1915306N12134 1915 47 WP MM NOT_NAMED 1915-11-06 03:00:00 NR 20.4502 113.410 main 161 123 __________P___ -1 20.4502 113.410 4 10 318
1915306N12134 1915 47 WP MM NOT_NAMED 1915-11-06 06:00:00 NR 20.8306 113.056 main 123 67 __________P___ -1 20.8306 113.056 4 10 319
1915306N12134 1915 47 WP MM NOT_NAMED 1915-11-06 09:00:00 NR 21.1881 112.715 main 67 54 __________P___ -1 21.1881 112.715 4 10 318
1915306N12134 1915 47 WP MM NOT_NAMED 1915-11-06 10:00:00 NR 21.3000 112.600 main 54 24 __________O___ -1 21.3000 112.600 4 9 315
1915306N12134 1915 47 WP MM NOT_NAMED 1915-11-06 12:00:00 NR 21.5110 112.364 main 24 0 __________P___ -1 21.5110 112.364 4 9 312
1915306N12134 1915 47 WP MM NOT_NAMED 1915-11-06 15:00:00 NR 21.8005 111.997 main 0 0 __________P___ -1 21.8005 111.997 4 9 309
1915306N12134 1915 47 WP MM NOT_NAMED 1915-11-06 18:00:00 NR 22.0661 111.617 main 0 0 __________P___ -1 22.0661 111.617 4 9 306
1915306N12134 1915 47 WP MM NOT_NAMED 1915-11-06 21:00:00 NR 22.3176 111.230 main 0 0 __________P___ -1 22.3176 111.230 4 9 305
1915306N12134 1915 47 WP MM NOT_NAMED 1915-11-06 22:00:00 NR 22.4000 111.100 main 0 __________O___ -1 22.4000 111.100 4 9 305

Digital Typhoon Data and Search

About IBTrACS Database

This database is a web-friendly format of International Best Track Archive for Climate Stewardship (IBTrACS), a global best track data archive curated by NOAA dating back to 1842.

Updated: 2021-11-26